createdAt,value
2019-06-07T00:00:47.876Z,10.00
2019-06-07T00:03:26.634Z,12.13
2019-06-07T00:05:45.287Z,10.33
2019-06-07T00:08:22.586Z,10.50
2019-06-07T00:10:42.880Z,10.63
2019-06-07T00:13:12.877Z,11.27
2019-06-07T00:15:40.390Z,12.30
2019-06-07T00:18:11.126Z,11.93
2019-06-07T00:20:37.692Z,11.77
2019-06-07T00:23:05.412Z,13.23
2019-06-07T00:25:33.103Z,13.70
2019-06-07T00:28:00.856Z,12.50
2019-06-07T00:30:42.378Z,16.00
2019-06-07T00:32:58.869Z,12.93
2019-06-07T00:35:26.659Z,12.80
2019-06-07T00:37:54.396Z,13.47
2019-06-07T00:40:31.524Z,15.77
2019-06-07T00:42:52.410Z,13.63
2019-06-07T00:45:24.650Z,13.40
2019-06-07T00:47:52.553Z,13.20
2019-06-07T00:50:23.964Z,13.00
2019-06-07T00:55:23.428Z,13.67
2019-06-07T00:57:50.325Z,15.03
2019-06-07T01:00:22.363Z,13.60
2019-06-07T01:02:49.738Z,13.30
2019-06-07T01:05:22.461Z,14.43
2019-06-07T01:07:47.215Z,13.43
2019-06-07T01:10:21.164Z,13.30
2019-06-07T01:12:45.212Z,12.43
2019-06-07T01:15:16.211Z,12.07
2019-06-07T01:18:32.429Z,11.80
2019-06-07T01:20:14.246Z,12.33
2019-06-07T01:22:42.141Z,11.30
2019-06-07T01:25:09.994Z,12.10
2019-06-07T01:27:37.865Z,12.10
2019-06-07T01:30:07.779Z,12.43
2019-06-07T01:32:35.435Z,12.20
2019-06-07T01:35:03.573Z,11.03
2019-06-07T01:37:31.248Z,11.93
2019-06-07T01:39:59.012Z,11.87
2019-06-07T01:42:29.449Z,11.67
2019-06-07T01:44:56.491Z,10.73
2019-06-07T01:47:25.602Z,11.07
2019-06-07T01:49:53.817Z,12.87
2019-06-07T01:52:23.542Z,10.33
2019-06-07T01:54:57.883Z,10.80
2019-06-07T01:57:38.343Z,10.27
2019-06-07T01:59:50.586Z,10.83
2019-06-07T02:02:20.051Z,11.70
2019-06-07T02:04:48.175Z,12.37
2019-06-07T02:07:15.948Z,11.13
2019-06-07T02:09:43.671Z,11.00
2019-06-07T02:12:25.587Z,11.33
2019-06-07T02:14:40.883Z,9.93
2019-06-07T02:17:08.698Z,10.53
2019-06-07T02:19:36.348Z,11.00
2019-06-07T02:22:04.064Z,15.70
2019-06-07T02:24:35.307Z,14.70
2019-06-07T02:27:01.565Z,14.83
2019-06-07T02:29:33.060Z,14.67
2019-06-07T02:32:00.173Z,14.07
2019-06-07T02:34:34.816Z,13.23
2019-06-07T02:36:57.709Z,13.63
2019-06-07T02:39:28.198Z,16.13
2019-06-07T02:41:55.133Z,17.17
2019-06-07T02:44:24.070Z,14.80
2019-06-07T02:46:52.917Z,15.93
2019-06-07T02:49:24.174Z,18.73
2019-06-07T02:51:50.887Z,18.00
2019-06-07T02:54:18.611Z,20.77
2019-06-07T02:56:58.159Z,14.67
2019-06-07T02:59:17.967Z,15.53
2019-06-07T03:01:45.729Z,20.00
2019-06-07T03:04:14.652Z,16.73
2019-06-07T03:06:44.041Z,13.37
2019-06-07T03:09:12.076Z,13.83
2019-06-07T03:11:42.333Z,18.87
2019-06-07T03:14:11.775Z,14.50
2019-06-07T03:16:47.357Z,16.13
2019-06-07T03:19:22.792Z,13.50
2019-06-07T03:21:52.521Z,13.20
2019-06-07T03:24:23.209Z,14.90
2019-06-07T03:29:21.328Z,12.90
2019-06-07T03:31:49.077Z,12.50
2019-06-07T03:34:16.814Z,15.10
2019-06-07T03:36:44.557Z,18.50
2019-06-07T03:39:12.270Z,13.30
2019-06-07T03:41:46.332Z,14.27
2019-06-07T03:44:09.594Z,16.93
2019-06-07T03:46:41.184Z,15.47
2019-06-07T03:49:08.195Z,18.17
2019-06-07T03:51:39.679Z,14.97
2019-06-07T03:54:05.607Z,14.97
2019-06-07T03:56:35.348Z,15.80
2019-06-07T03:59:03.377Z,15.10
2019-06-07T04:01:32.349Z,11.73
2019-06-07T04:04:00.671Z,13.37
2019-06-07T04:06:30.881Z,10.43
2019-06-07T04:08:58.050Z,13.27
2019-06-07T04:11:25.757Z,14.07
2019-06-07T04:13:53.687Z,14.43
2019-06-07T04:16:21.524Z,15.90
2019-06-07T04:18:49.218Z,16.17
2019-06-07T04:21:16.953Z,19.67
2019-06-07T04:23:45.674Z,17.17
2019-06-07T04:26:14.922Z,15.40
2019-06-07T04:29:31.083Z,17.40
2019-06-07T04:31:12.429Z,15.13
2019-06-07T04:33:43.530Z,14.93
2019-06-07T04:36:10.745Z,15.03
2019-06-07T04:38:42.600Z,19.10
2019-06-07T04:41:12.786Z,16.23
2019-06-07T04:43:42.839Z,16.07
2019-06-07T04:46:12.108Z,17.70
2019-06-07T04:48:43.735Z,15.50
2019-06-07T04:51:16.792Z,20.10
2019-06-07T04:53:44.613Z,16.93
2019-06-07T04:56:12.320Z,19.73
2019-06-07T04:58:41.347Z,16.57
2019-06-07T05:01:26.225Z,17.97
2019-06-07T05:03:43.885Z,17.33
2019-06-07T05:06:08.856Z,16.90
2019-06-07T05:08:40.578Z,17.73
2019-06-07T05:11:06.186Z,14.67
2019-06-07T05:13:37.855Z,17.80
2019-06-07T05:16:03.617Z,18.47
2019-06-07T05:18:33.702Z,15.50
2019-06-07T05:21:00.905Z,15.93
2019-06-07T05:24:04.378Z,18.73
2019-06-07T05:25:58.346Z,15.90
2019-06-07T05:28:26.045Z,17.60
2019-06-07T05:31:05.268Z,16.37
2019-06-07T05:33:23.879Z,19.40
2019-06-07T05:35:51.636Z,21.10
2019-06-07T05:38:19.369Z,16.17
2019-06-07T05:40:48.659Z,16.93
2019-06-07T05:43:25.241Z,20.40
2019-06-07T05:45:53.232Z,19.97
2019-06-07T05:48:21.383Z,21.17
2019-06-07T05:50:56.474Z,18.03
2019-06-07T05:53:27.195Z,19.07
2019-06-07T05:55:54.875Z,21.43
2019-06-07T05:58:22.609Z,24.03
2019-06-07T06:00:51.051Z,20.77
2019-06-07T06:03:19.132Z,24.53
2019-06-07T06:05:54.569Z,25.93
2019-06-07T06:08:16.755Z,26.80
2019-06-07T06:10:48.008Z,26.10
2019-06-07T06:13:14.407Z,30.40
2019-06-07T06:15:58.532Z,29.60
2019-06-07T06:18:12.112Z,29.90
2019-06-07T06:21:05.336Z,30.20
2019-06-07T06:23:09.667Z,32.27
2019-06-07T06:25:40.829Z,29.90
2019-06-07T06:28:12.286Z,30.27
2019-06-07T06:30:38.137Z,28.57
2019-06-07T06:33:06.205Z,32.90
2019-06-07T06:35:33.925Z,25.83
2019-06-07T06:38:01.790Z,23.20
2019-06-07T06:40:29.484Z,23.33
2019-06-07T06:42:57.238Z,22.03
2019-06-07T06:45:25.261Z,26.17
2019-06-07T06:47:52.979Z,23.47
2019-06-07T06:50:20.927Z,25.93
2019-06-07T06:52:54.056Z,25.80
2019-06-07T06:55:21.165Z,27.07
2019-06-07T06:57:51.191Z,25.07
2019-06-07T07:00:43.030Z,24.13
2019-06-07T07:03:39.574Z,24.83
2019-06-07T07:05:25.386Z,23.00
2019-06-07T07:07:53.320Z,23.30
2019-06-07T07:10:36.373Z,25.37
2019-06-07T07:13:05.544Z,28.73
2019-06-07T07:15:35.651Z,27.13
2019-06-07T07:18:08.869Z,23.90
2019-06-07T07:20:35.934Z,28.90
2019-06-07T07:23:04.086Z,23.87
2019-06-07T07:25:32.103Z,24.53
2019-06-07T07:27:59.911Z,25.63
2019-06-07T07:30:59.301Z,24.20
2019-06-07T07:34:18.660Z,29.63
2019-06-07T07:36:22.698Z,24.70
2019-06-07T07:38:26.330Z,22.87
2019-06-07T07:41:06.679Z,26.30
2019-06-07T07:43:24.280Z,23.77
2019-06-07T07:45:59.376Z,25.80
2019-06-07T07:48:22.325Z,24.87
2019-06-07T07:50:54.428Z,22.57
2019-06-07T07:53:19.835Z,20.27
2019-06-07T07:55:50.461Z,24.73
2019-06-07T07:58:17.338Z,22.00
2019-06-07T08:01:04.747Z,21.33
2019-06-07T08:03:15.066Z,26.27
2019-06-07T08:05:44.938Z,24.00
2019-06-07T08:08:12.544Z,25.27
2019-06-07T08:10:40.356Z,24.70
2019-06-07T08:13:24.806Z,20.90
2019-06-07T08:15:38.832Z,25.30
2019-06-07T08:18:06.749Z,21.27
2019-06-07T08:20:34.592Z,22.53
2019-06-07T08:23:02.260Z,19.77
2019-06-07T08:25:30.107Z,20.00
2019-06-07T08:27:59.138Z,20.70
2019-06-07T08:33:12.064Z,24.53
2019-06-07T08:38:22.147Z,22.33
2019-06-07T08:40:26.309Z,20.03
2019-06-07T08:43:10.638Z,19.30
2019-06-07T08:45:23.733Z,24.37
2019-06-07T08:47:57.166Z,19.23
2019-06-07T08:50:23.130Z,18.10
2019-06-07T08:52:54.783Z,21.30
2019-06-07T08:55:20.771Z,22.77
2019-06-07T08:57:48.452Z,21.10
2019-06-07T09:00:42.992Z,21.63
2019-06-07T09:02:48.185Z,22.30
2019-06-07T09:05:17.391Z,20.17
2019-06-07T09:07:45.057Z,19.80
2019-06-07T09:10:15.234Z,20.47
2019-06-07T09:12:43.362Z,20.27
2019-06-07T09:15:22.659Z,20.90
2019-06-07T09:18:29.579Z,21.07
2019-06-07T09:20:35.086Z,21.23
2019-06-07T09:22:43.948Z,18.77
2019-06-07T09:25:21.155Z,16.93
2019-06-07T09:27:42.865Z,17.33
2019-06-07T09:30:18.360Z,16.73
2019-06-07T09:32:41.165Z,19.03
2019-06-07T09:35:16.844Z,16.07
2019-06-07T09:38:04.266Z,17.50
2019-06-07T09:40:24.840Z,15.90
2019-06-07T09:42:40.246Z,17.23
2019-06-07T09:45:11.711Z,17.97
2019-06-07T09:47:37.832Z,16.70
2019-06-07T09:50:11.837Z,15.87
2019-06-07T09:52:57.335Z,15.67
2019-06-07T09:55:19.637Z,16.40
2019-06-07T09:57:35.963Z,15.30
2019-06-07T10:00:38.216Z,18.20
2019-06-07T10:02:37.642Z,15.77
2019-06-07T10:05:12.189Z,16.43
2019-06-07T10:07:35.374Z,16.00
2019-06-07T10:10:22.343Z,14.80
2019-06-07T10:12:33.310Z,17.47
2019-06-07T10:15:01.070Z,16.27
2019-06-07T10:17:28.920Z,14.63
2019-06-07T10:19:56.723Z,14.60
2019-06-07T10:22:24.572Z,16.53
2019-06-07T10:24:52.429Z,14.37
2019-06-07T10:27:20.989Z,14.03
2019-06-07T10:29:49.673Z,14.20
2019-06-07T10:32:17.593Z,14.13
2019-06-07T10:34:45.859Z,15.77
2019-06-07T10:37:15.610Z,14.83
2019-06-07T10:39:48.604Z,12.60
2019-06-07T10:42:13.106Z,16.80
2019-06-07T10:44:40.816Z,11.90
2019-06-07T10:47:10.005Z,12.43
2019-06-07T10:49:37.886Z,11.53
2019-06-07T10:52:07.884Z,12.17
2019-06-07T10:54:35.448Z,11.97
2019-06-07T10:57:04.751Z,9.87
2019-06-07T10:59:32.987Z,9.57
2019-06-07T11:02:01.505Z,10.67
2019-06-07T11:04:29.167Z,8.33
2019-06-07T11:06:57.032Z,9.93
2019-06-07T11:09:24.840Z,9.80
2019-06-07T11:11:52.587Z,10.63
2019-06-07T11:14:20.298Z,9.93
2019-06-07T11:16:48.056Z,10.67
2019-06-07T11:19:17.804Z,8.77
2019-06-07T11:21:45.478Z,8.77
2019-06-07T11:24:14.428Z,8.80
2019-06-07T11:26:42.345Z,9.93
2019-06-07T11:29:10.991Z,9.10
2019-06-07T11:31:39.247Z,9.87
2019-06-07T11:34:08.228Z,13.40
2019-06-07T11:36:36.120Z,10.50
2019-06-07T11:39:06.505Z,11.23
2019-06-07T11:41:34.259Z,10.63
2019-06-07T11:44:02.013Z,11.10
2019-06-07T11:46:29.825Z,9.40
2019-06-07T11:48:57.505Z,9.83
2019-06-07T11:51:25.395Z,10.23
2019-06-07T11:53:53.281Z,9.73
2019-06-07T11:56:20.961Z,10.37
2019-06-07T11:58:48.673Z,9.60
2019-06-07T12:01:18.503Z,11.53
2019-06-07T12:03:46.086Z,10.17
2019-06-07T12:06:14.639Z,9.63
2019-06-07T12:08:43.833Z,13.30
2019-06-07T12:11:12.195Z,9.37
2019-06-07T12:13:40.104Z,9.57
2019-06-07T12:16:09.046Z,8.83
2019-06-07T12:18:36.947Z,9.63
2019-06-07T12:21:04.742Z,9.17
2019-06-07T12:23:32.598Z,8.53
2019-06-07T12:26:00.301Z,8.87
2019-06-07T12:28:28.791Z,13.63
2019-06-07T12:30:57.110Z,9.67
2019-06-07T12:33:25.013Z,8.87
2019-06-07T12:35:52.724Z,8.73
2019-06-07T12:38:21.458Z,8.70
2019-06-07T12:40:57.729Z,13.00
2019-06-07T12:43:23.441Z,8.97
2019-06-07T12:45:51.596Z,9.57
2019-06-07T12:48:22.923Z,9.90
2019-06-07T12:50:49.275Z,10.00
2019-06-07T12:53:24.224Z,10.90
2019-06-07T12:55:48.643Z,10.20
2019-06-07T12:58:16.485Z,10.50
2019-06-07T13:00:44.270Z,9.73
2019-06-07T13:03:12.016Z,11.37
2019-06-07T13:05:39.779Z,10.63
2019-06-07T13:08:07.706Z,11.57
2019-06-07T13:10:35.718Z,10.03
2019-06-07T13:13:03.770Z,10.53
2019-06-07T13:15:31.447Z,10.43
2019-06-07T13:17:59.175Z,10.40
2019-06-07T13:20:28.784Z,8.97
2019-06-07T13:22:56.645Z,11.00
2019-06-07T13:25:35.007Z,9.10
2019-06-07T13:27:54.352Z,8.30
2019-06-07T13:30:23.512Z,9.33
2019-06-07T13:32:52.226Z,12.23
2019-06-07T13:35:22.111Z,10.60
2019-06-07T13:37:50.885Z,10.13
2019-06-07T13:40:19.813Z,11.07
2019-06-07T13:42:51.200Z,10.83
2019-06-07T13:45:20.042Z,10.77
2019-06-07T13:47:48.650Z,9.67
2019-06-07T13:50:17.594Z,9.17
2019-06-07T13:52:46.785Z,10.63
2019-06-07T13:55:15.517Z,10.40
2019-06-07T13:57:43.332Z,10.07
2019-06-07T14:00:11.614Z,9.93
2019-06-07T14:02:39.897Z,9.83
2019-06-07T14:05:08.542Z,9.90
2019-06-07T14:07:36.510Z,9.20
2019-06-07T14:10:05.320Z,9.77
2019-06-07T14:12:33.409Z,9.33
2019-06-07T14:15:01.173Z,9.93
2019-06-07T14:17:30.953Z,9.00
2019-06-07T14:19:59.764Z,9.33
2019-06-07T14:22:28.917Z,8.93
2019-06-07T14:24:56.951Z,7.97
2019-06-07T14:27:25.484Z,7.83
2019-06-07T14:29:53.248Z,7.73
2019-06-07T14:32:22.681Z,8.80
2019-06-07T14:34:52.605Z,7.37
2019-06-07T14:37:20.253Z,8.03
2019-06-07T14:39:47.988Z,9.30
2019-06-07T14:42:15.689Z,8.83
2019-06-07T14:44:46.128Z,9.13
2019-06-07T14:47:13.877Z,7.70
2019-06-07T14:49:41.662Z,7.67
2019-06-07T14:52:09.496Z,8.97
2019-06-07T14:54:39.246Z,7.80
2019-06-07T14:57:08.735Z,13.13
2019-06-07T14:59:36.631Z,7.30
2019-06-07T15:02:04.320Z,7.60
2019-06-07T15:04:32.867Z,7.63
2019-06-07T15:07:01.465Z,8.17
2019-06-07T15:09:31.038Z,8.77
2019-06-07T15:11:58.866Z,8.57
2019-06-07T15:14:27.327Z,7.60
2019-06-07T15:16:57.147Z,11.43
2019-06-07T15:19:26.495Z,9.43
2019-06-07T15:21:54.595Z,8.13
2019-06-07T15:24:22.475Z,7.97
2019-06-07T15:26:50.297Z,9.27
2019-06-07T15:29:18.276Z,8.07
2019-06-07T15:31:46.071Z,7.70
2019-06-07T15:34:13.882Z,9.33
2019-06-07T15:36:41.579Z,8.63
2019-06-07T15:39:09.376Z,8.50
2019-06-07T15:41:37.491Z,8.07
2019-06-07T15:44:05.521Z,10.27
2019-06-07T15:46:33.706Z,8.20
2019-06-07T15:49:01.763Z,8.27
2019-06-07T15:51:30.647Z,7.77
2019-06-07T15:53:58.784Z,8.77
2019-06-07T15:56:26.661Z,9.30
2019-06-07T15:58:54.554Z,9.57
2019-06-07T16:01:22.400Z,7.93
2019-06-07T16:03:50.249Z,43.73
2019-06-07T16:06:19.677Z,25.57
2019-06-07T16:09:15.870Z,16.70
2019-06-07T16:11:44.334Z,11.70
2019-06-07T16:14:12.218Z,32.47
2019-06-07T16:16:41.365Z,9.10
2019-06-07T16:19:09.336Z,11.03
2019-06-07T16:21:37.395Z,8.80
2019-06-07T16:24:05.589Z,9.63
2019-06-07T16:26:34.058Z,8.93
2019-06-07T16:29:02.373Z,39.47
2019-06-07T16:31:30.207Z,13.83
2019-06-07T16:33:57.943Z,9.50
2019-06-07T16:36:25.746Z,11.90
2019-06-07T16:38:53.434Z,9.57
2019-06-07T16:41:21.420Z,11.53
2019-06-07T16:43:49.126Z,10.53
2019-06-07T16:46:16.976Z,8.40
2019-06-07T16:48:45.103Z,9.27
2019-06-07T16:51:12.968Z,7.43
2019-06-07T16:53:40.779Z,7.20
2019-06-07T16:56:08.584Z,8.43
2019-06-07T16:58:37.738Z,6.90
2019-06-07T17:01:05.697Z,8.77
2019-06-07T17:03:33.524Z,7.67
2019-06-07T17:06:01.285Z,9.50
2019-06-07T17:08:29.023Z,7.17
2019-06-07T17:10:56.883Z,7.23
2019-06-07T17:13:33.285Z,7.23
2019-06-07T17:15:54.475Z,6.97
2019-06-07T17:18:22.292Z,7.37
2019-06-07T17:20:57.413Z,9.80
2019-06-07T17:23:25.239Z,7.73
2019-06-07T17:25:53.197Z,10.63
2019-06-07T17:28:20.964Z,8.33
2019-06-07T17:30:50.411Z,9.87
2019-06-07T17:33:18.689Z,7.80
2019-06-07T17:35:54.267Z,8.27
2019-06-07T17:38:29.524Z,8.73
2019-06-07T17:41:08.772Z,7.37
2019-06-07T17:43:50.529Z,7.50
2019-06-07T17:46:06.228Z,10.67
2019-06-07T17:48:33.921Z,7.77
2019-06-07T17:51:01.819Z,7.43
2019-06-07T17:53:30.597Z,11.53
2019-06-07T17:55:58.627Z,7.77
2019-06-07T17:58:27.486Z,7.60
2019-06-07T18:00:55.407Z,8.23
2019-06-07T18:03:23.229Z,9.23
2019-06-07T18:05:54.093Z,12.00
2019-06-07T18:08:23.985Z,9.87
2019-06-07T18:10:52.139Z,8.63
2019-06-07T18:13:20.562Z,7.90
2019-06-07T18:15:52.943Z,9.37
2019-06-07T18:18:18.253Z,7.70
2019-06-07T18:20:47.181Z,7.80
2019-06-07T18:23:15.409Z,9.53
2019-06-07T18:25:43.264Z,11.47
2019-06-07T18:28:11.227Z,8.20
2019-06-07T18:30:38.942Z,8.47
2019-06-07T18:33:06.908Z,8.20
2019-06-07T18:35:35.295Z,11.80
2019-06-07T18:38:03.342Z,8.93
2019-06-07T18:40:31.134Z,8.87
2019-06-07T18:42:59.571Z,9.77
2019-06-07T18:45:27.856Z,9.47
2019-06-07T18:47:55.807Z,10.77
2019-06-07T18:50:23.649Z,11.33
2019-06-07T18:52:52.608Z,10.47
2019-06-07T18:55:20.652Z,11.60
2019-06-07T18:57:48.404Z,11.50
2019-06-07T19:00:16.657Z,8.63
2019-06-07T19:02:44.395Z,12.90
2019-06-07T19:05:12.723Z,13.87
2019-06-07T19:07:40.979Z,15.67
2019-06-07T19:10:10.513Z,14.37
2019-06-07T19:12:38.633Z,11.80
2019-06-07T19:15:07.304Z,11.90
2019-06-07T19:17:35.144Z,10.87
2019-06-07T19:20:03.353Z,10.27
2019-06-07T19:22:31.118Z,13.27
2019-06-07T19:25:00.467Z,13.90
2019-06-07T19:27:28.559Z,12.83
2019-06-07T19:29:56.759Z,12.73
2019-06-07T19:32:24.899Z,10.70
2019-06-07T19:34:53.220Z,13.43
2019-06-07T19:37:21.172Z,13.27
2019-06-07T19:39:48.869Z,12.03
2019-06-07T19:42:16.588Z,12.43
2019-06-07T19:44:54.631Z,17.43
2019-06-07T19:47:13.915Z,17.70
2019-06-07T19:49:41.612Z,17.30
2019-06-07T19:52:09.807Z,15.73
2019-06-07T19:54:37.533Z,15.93
2019-06-07T19:57:05.687Z,14.17
2019-06-07T19:59:33.423Z,12.33
2019-06-07T20:02:02.093Z,17.03
2019-06-07T20:04:30.089Z,13.23
2019-06-07T20:06:58.237Z,19.57
2019-06-07T20:09:26.041Z,14.40
2019-06-07T20:11:54.507Z,15.17
2019-06-07T20:14:23.117Z,15.00
2019-06-07T20:16:51.230Z,15.00
2019-06-07T20:19:19.060Z,16.37
2019-06-07T20:21:46.746Z,14.97
2019-06-07T20:24:26.302Z,14.97
2019-06-07T20:26:47.116Z,14.90
2019-06-07T20:29:25.962Z,16.80
2019-06-07T20:31:44.727Z,14.93
2019-06-07T20:34:13.214Z,15.07
2019-06-07T20:36:40.985Z,16.60
2019-06-07T20:39:08.827Z,21.03
2019-06-07T20:41:37.268Z,20.60
2019-06-07T20:44:05.852Z,29.97
2019-06-07T20:46:33.730Z,34.63
2019-06-07T20:49:02.328Z,47.03
2019-06-07T20:51:30.125Z,41.03
2019-06-07T20:53:58.479Z,36.40
2019-06-07T20:56:26.268Z,28.47
2019-06-07T20:58:54.111Z,27.50
2019-06-07T21:01:22.227Z,18.23
2019-06-07T21:03:50.017Z,16.63
2019-06-07T21:06:17.925Z,18.50
2019-06-07T21:08:45.690Z,15.20
2019-06-07T21:11:13.599Z,17.73
2019-06-07T21:13:41.362Z,17.40
2019-06-07T21:16:10.334Z,23.03
2019-06-07T21:18:38.347Z,21.53
2019-06-07T21:21:06.459Z,17.90
2019-06-07T21:23:34.329Z,18.93
2019-06-07T21:26:03.052Z,20.00
2019-06-07T21:28:30.954Z,19.23
2019-06-07T21:30:58.943Z,23.10
2019-06-07T21:33:26.649Z,18.73
2019-06-07T21:35:54.495Z,18.03
2019-06-07T21:38:22.211Z,18.10
2019-06-07T21:40:50.009Z,18.90
2019-06-07T21:43:17.800Z,17.77
2019-06-07T21:45:45.652Z,17.33
2019-06-07T21:48:14.415Z,17.60
2019-06-07T21:50:42.502Z,18.67
2019-06-07T21:53:10.731Z,20.13
2019-06-07T21:55:38.615Z,17.97
2019-06-07T21:58:07.042Z,20.33
2019-06-07T22:01:14.220Z,23.30
2019-06-07T22:03:42.533Z,16.40
2019-06-07T22:06:11.768Z,20.73
2019-06-07T22:08:40.461Z,16.10
2019-06-07T22:11:08.352Z,18.13
2019-06-07T22:13:36.321Z,17.77
2019-06-07T22:16:04.193Z,18.00
2019-06-07T22:18:31.922Z,17.00
2019-06-07T22:20:59.678Z,16.90
2019-06-07T22:23:27.472Z,18.27
2019-06-07T22:25:55.281Z,17.50
2019-06-07T22:28:23.291Z,16.73
2019-06-07T22:30:51.057Z,16.37
2019-06-07T22:33:19.051Z,17.23
2019-06-07T22:35:46.947Z,16.93
2019-06-07T22:38:14.639Z,16.80
2019-06-07T22:40:42.436Z,17.83
2019-06-07T22:43:11.835Z,16.77
2019-06-07T22:45:39.841Z,16.90
2019-06-07T22:48:08.690Z,15.23
2019-06-07T22:50:36.708Z,16.77
2019-06-07T22:53:04.524Z,16.90
2019-06-07T22:55:32.380Z,17.33
2019-06-07T22:58:00.586Z,18.23
2019-06-07T23:00:29.852Z,16.87
2019-06-07T23:02:57.681Z,17.00
2019-06-07T23:05:26.283Z,17.90
2019-06-07T23:07:54.162Z,17.90
2019-06-07T23:10:22.139Z,19.17
2019-06-07T23:12:49.866Z,18.60
2019-06-07T23:15:19.354Z,18.27
2019-06-07T23:17:49.025Z,16.03
2019-06-07T23:20:18.066Z,17.07
2019-06-07T23:22:45.998Z,16.10
2019-06-07T23:25:18.884Z,16.50
2019-06-07T23:27:44.673Z,16.83
2019-06-07T23:30:14.649Z,16.87
2019-06-07T23:32:42.442Z,17.83
2019-06-07T23:35:11.009Z,18.33
2019-06-07T23:37:38.801Z,19.37
2019-06-07T23:40:07.136Z,18.17
2019-06-07T23:42:34.984Z,16.53
2019-06-07T23:45:05.567Z,18.27
2019-06-07T23:47:33.344Z,19.63
2019-06-07T23:50:01.053Z,19.97
2019-06-07T23:52:29.094Z,19.63
2019-06-07T23:54:56.813Z,18.67
2019-06-07T23:57:24.575Z,18.57
2019-06-07T23:59:52.287Z,18.33
